Time;durP1;ratioP1;P1;durP2;ratioP2;P2;SDS_P1;SDS_P2;PMS_P1;PMS_P2;Temp;Humidity;BMP_temperature;BMP_pressure;BME280_temperature;BME280_humidity;BME280_pressure;Samples;Min_cycle;Max_cycle;Signal;HPM_P1;HPM_P2
2022/11/14 00:00:59;;;;;;;26.63;15.73;;;;;;;;;;5086737;28;20032;-75
2022/11/14 00:03:25;;;;;;;26.13;14.55;;;;;;;;;;5087920;28;20023;-75
2022/11/14 00:05:51;;;;;;;26.75;15.98;;;;;;;;;;5078974;28;20039;-75
2022/11/14 00:08:18;;;;;;;22.15;13.38;;;;;;;;;;5083861;28;20377;-75
2022/11/14 00:10:45;;;;;;;19.58;12.20;;;;;;;;;;5079613;28;20024;-75
2022/11/14 00:13:11;;;;;;;20.15;12.50;;;;;;;;;;5086101;28;20030;-75
2022/11/14 00:15:37;;;;;;;21.15;13.35;;;;;;;;;;5080482;28;20147;-75
2022/11/14 00:18:03;;;;;;;25.45;13.50;;;;;;;;;;5084331;28;20043;-75
2022/11/14 00:20:29;;;;;;;19.02;12.52;;;;;;;;;;5084768;28;20032;-75
2022/11/14 00:22:56;;;;;;;25.75;16.52;;;;;;;;;;5078583;28;20490;-75
2022/11/14 00:25:22;;;;;;;22.90;13.45;;;;;;;;;;5084633;28;20043;-75
2022/11/14 00:27:48;;;;;;;18.92;12.68;;;;;;;;;;5079182;28;20074;-75
2022/11/14 00:30:14;;;;;;;21.25;13.00;;;;;;;;;;5086308;28;20043;-75
2022/11/14 00:32:40;;;;;;;25.02;14.70;;;;;;;;;;5085709;28;20039;-75
2022/11/14 00:35:07;;;;;;;22.70;12.10;;;;;;;;;;5085994;28;20461;-75
2022/11/14 00:37:33;;;;;;;23.77;13.55;;;;;;;;;;5088673;28;20111;-75
2022/11/14 00:39:59;;;;;;;21.17;13.38;;;;;;;;;;5094998;28;20590;-75
2022/11/14 00:42:26;;;;;;;23.33;12.85;;;;;;;;;;5081310;28;20032;-75
2022/11/14 00:44:51;;;;;;;23.45;14.18;;;;;;;;;;5089237;28;20035;-75
2022/11/14 00:47:17;;;;;;;24.63;13.82;;;;;;;;;;5083502;28;20028;-75
2022/11/14 00:49:43;;;;;;;22.85;11.63;;;;;;;;;;5081661;28;20485;-75
2022/11/14 00:52:09;;;;;;;22.85;12.95;;;;;;;;;;5075554;28;20111;-75
2022/11/14 00:54:35;;;;;;;23.17;13.45;;;;;;;;;;5080503;28;20036;-75
2022/11/14 00:57:01;;;;;;;22.23;12.25;;;;;;;;;;5092581;28;20045;-75
2022/11/14 00:59:27;;;;;;;20.70;12.75;;;;;;;;;;5081399;28;20127;-75
2022/11/14 01:01:53;;;;;;;18.05;11.90;;;;;;;;;;5085350;28;20020;-75
2022/11/14 01:04:19;;;;;;;20.30;11.13;;;;;;;;;;5078344;28;20029;-75
2022/11/14 01:06:45;;;;;;;19.55;10.77;;;;;;;;;;5084973;28;20111;-76
2022/11/14 01:09:12;;;;;;;17.70;10.90;;;;;;;;;;5090877;28;20028;-75
2022/11/14 01:11:38;;;;;;;16.80;10.93;;;;;;;;;;5082932;28;20036;-75
2022/11/14 01:14:07;;;;;;;15.02;9.70;;;;;;;;;;5089037;28;20039;-75
2022/11/14 01:16:34;;;;;;;17.38;10.98;;;;;;;;;;5080997;28;20032;-75
2022/11/14 01:19:00;;;;;;;18.17;9.70;;;;;;;;;;5081766;28;20485;-75
2022/11/14 01:21:26;;;;;;;18.33;9.43;;;;;;;;;;5072839;28;20031;-75
2022/11/14 01:23:52;;;;;;;15.55;9.55;;;;;;;;;;5086326;28;20028;-75
2022/11/14 01:26:18;;;;;;;15.75;9.45;;;;;;;;;;5087384;28;20074;-75
2022/11/14 01:28:44;;;;;;;19.60;12.30;;;;;;;;;;5087220;28;20355;-75
2022/11/14 01:31:13;;;;;;;22.38;11.35;;;;;;;;;;5075553;28;20051;-75
2022/11/14 01:33:39;;;;;;;18.55;12.25;;;;;;;;;;5079667;28;20039;-75
2022/11/14 01:36:06;;;;;;;29.30;17.00;;;;;;;;;;5086754;28;20357;-75
2022/11/14 01:38:32;;;;;;;24.77;14.27;;;;;;;;;;5079900;28;20032;-75
2022/11/14 01:40:58;;;;;;;18.67;11.75;;;;;;;;;;5068984;28;20038;-75
2022/11/14 01:43:25;;;;;;;19.38;10.85;;;;;;;;;;5087137;28;20036;-74
2022/11/14 01:45:55;;;;;;;19.95;10.98;;;;;;;;;;5092195;28;20036;-75
2022/11/14 01:48:33;;;;;;;17.00;8.40;;;;;;;;;;5078517;28;20132;-74
2022/11/14 01:51:02;;;;;;;15.48;8.52;;;;;;;;;;5090893;28;20048;-74
2022/11/14 01:53:28;;;;;;;15.25;9.30;;;;;;;;;;5082557;28;20024;-74
2022/11/14 01:55:55;;;;;;;15.73;8.32;;;;;;;;;;5079612;28;20031;-74
2022/11/14 01:58:22;;;;;;;20.33;13.75;;;;;;;;;;5085692;28;20028;-74
2022/11/14 02:00:48;;;;;;;19.75;12.65;;;;;;;;;;5078330;28;20051;-74
2022/11/14 02:03:14;;;;;;;21.73;10.07;;;;;;;;;;5086083;28;20051;-74
2022/11/14 02:05:42;;;;;;;16.00;9.50;;;;;;;;;;5082749;28;20043;-74
2022/11/14 02:08:09;;;;;;;17.48;10.25;;;;;;;;;;5087739;28;20024;-74
2022/11/14 02:10:35;;;;;;;14.13;9.52;;;;;;;;;;5086537;28;20571;-75
2022/11/14 02:13:01;;;;;;;14.50;8.55;;;;;;;;;;5082496;28;20054;-75
2022/11/14 02:15:27;;;;;;;19.00;10.80;;;;;;;;;;5087019;28;20028;-74
2022/11/14 02:17:54;;;;;;;17.30;10.82;;;;;;;;;;5087143;28;20252;-74
2022/11/14 02:20:31;;;;;;;16.35;10.30;;;;;;;;;;5081535;28;20407;-75
2022/11/14 02:22:58;;;;;;;15.23;9.90;;;;;;;;;;5076286;28;20063;-74
2022/11/14 02:25:24;;;;;;;13.32;8.38;;;;;;;;;;5088385;28;20036;-74
2022/11/14 02:27:50;;;;;;;12.23;7.40;;;;;;;;;;5078318;28;20066;-74
2022/11/14 02:30:22;;;;;;;12.70;7.20;;;;;;;;;;5085891;28;20445;-74
2022/11/14 02:32:48;;;;;;;16.65;7.55;;;;;;;;;;5083227;28;20071;-74
2022/11/14 02:35:14;;;;;;;12.60;7.28;;;;;;;;;;5084204;28;20548;-75
2022/11/14 02:37:40;;;;;;;11.40;7.05;;;;;;;;;;5069865;28;20153;-74
2022/11/14 02:40:06;;;;;;;13.27;6.72;;;;;;;;;;5079357;28;20043;-74
2022/11/14 02:42:32;;;;;;;14.20;7.20;;;;;;;;;;5093270;28;20338;-75
2022/11/14 02:44:58;;;;;;;22.88;14.30;;;;;;;;;;5080354;28;20035;-75
2022/11/14 02:47:24;;;;;;;15.70;10.57;;;;;;;;;;5082077;28;20039;-74
2022/11/14 02:49:50;;;;;;;14.05;8.27;;;;;;;;;;5081170;28;20039;-74
2022/11/14 02:52:17;;;;;;;12.32;7.57;;;;;;;;;;5080840;28;20067;-74
2022/11/14 02:54:43;;;;;;;15.00;7.88;;;;;;;;;;5084271;28;20039;-74
2022/11/14 02:57:09;;;;;;;15.00;8.10;;;;;;;;;;5091754;28;20036;-74
2022/11/14 02:59:35;;;;;;;12.65;7.85;;;;;;;;;;5082348;28;20787;-75
2022/11/14 03:02:01;;;;;;;15.75;8.35;;;;;;;;;;5087454;28;20063;-74
2022/11/14 03:04:27;;;;;;;14.98;10.45;;;;;;;;;;5090213;28;20078;-75
2022/11/14 03:06:53;;;;;;;12.90;8.80;;;;;;;;;;5085698;28;20028;-74
2022/11/14 03:09:19;;;;;;;12.18;8.02;;;;;;;;;;5082565;28;20033;-75
2022/11/14 03:11:45;;;;;;;11.05;7.20;;;;;;;;;;5083795;28;20035;-75
2022/11/14 03:14:11;;;;;;;14.73;7.97;;;;;;;;;;5080152;28;20048;-75
2022/11/14 03:16:37;;;;;;;19.75;8.77;;;;;;;;;;5081722;28;20181;-74
2022/11/14 03:19:03;;;;;;;10.85;7.63;;;;;;;;;;5091787;28;20754;-75
2022/11/14 03:21:30;;;;;;;15.50;9.00;;;;;;;;;;5088206;28;20035;-74
2022/11/14 03:23:56;;;;;;;14.45;8.00;;;;;;;;;;5087198;28;20063;-74
2022/11/14 03:26:22;;;;;;;14.88;8.20;;;;;;;;;;5082233;28;20456;-74
2022/11/14 03:28:48;;;;;;;13.25;7.53;;;;;;;;;;5090603;28;20077;-75
2022/11/14 03:31:14;;;;;;;12.88;8.25;;;;;;;;;;5078456;28;20032;-74
2022/11/14 03:33:40;;;;;;;12.60;7.72;;;;;;;;;;5084043;28;20064;-74
2022/11/14 03:36:07;;;;;;;12.43;7.47;;;;;;;;;;5089771;28;20439;-75
2022/11/14 03:38:33;;;;;;;12.05;7.00;;;;;;;;;;5082810;28;20040;-74
2022/11/14 03:40:59;;;;;;;13.00;7.78;;;;;;;;;;5090245;28;20350;-74
2022/11/14 03:43:26;;;;;;;15.10;9.00;;;;;;;;;;5080833;28;20036;-74
2022/11/14 03:45:52;;;;;;;13.85;8.98;;;;;;;;;;5078142;28;20024;-74
2022/11/14 03:48:18;;;;;;;19.25;11.32;;;;;;;;;;5079385;28;20056;-75
2022/11/14 03:50:44;;;;;;;16.48;10.00;;;;;;;;;;5077712;28;20071;-74
2022/11/14 03:53:10;;;;;;;15.38;8.68;;;;;;;;;;5084606;28;20142;-74
2022/11/14 03:55:37;;;;;;;11.65;7.68;;;;;;;;;;5090070;28;20035;-74
2022/11/14 03:58:03;;;;;;;17.85;8.45;;;;;;;;;;5081030;28;20111;-74
2022/11/14 04:00:29;;;;;;;13.75;9.35;;;;;;;;;;5083106;28;20047;-74
2022/11/14 04:02:56;;;;;;;14.30;9.52;;;;;;;;;;5088509;28;20029;-74
2022/11/14 04:05:22;;;;;;;17.77;8.20;;;;;;;;;;5088601;28;20093;-75
2022/11/14 04:07:49;;;;;;;13.23;8.73;;;;;;;;;;5086294;28;20414;-74
2022/11/14 04:10:15;;;;;;;13.57;8.90;;;;;;;;;;5090102;28;20028;-74
2022/11/14 04:12:41;;;;;;;14.25;9.27;;;;;;;;;;5081446;28;20044;-74
2022/11/14 04:15:07;;;;;;;13.77;8.52;;;;;;;;;;5082426;28;20039;-74
2022/11/14 04:17:33;;;;;;;13.70;7.70;;;;;;;;;;5087529;28;20082;-74
2022/11/14 04:19:59;;;;;;;12.02;7.65;;;;;;;;;;5091326;28;20476;-74
2022/11/14 04:22:25;;;;;;;12.93;7.78;;;;;;;;;;5072488;28;20040;-74
2022/11/14 04:24:51;;;;;;;11.77;8.23;;;;;;;;;;5091009;28;20028;-74
2022/11/14 04:27:17;;;;;;;14.48;8.88;;;;;;;;;;5074115;28;20474;-74
2022/11/14 04:29:43;;;;;;;15.35;9.00;;;;;;;;;;5088923;28;20020;-74
2022/11/14 04:32:09;;;;;;;13.93;8.15;;;;;;;;;;5077416;28;20382;-74
2022/11/14 04:34:35;;;;;;;12.88;7.18;;;;;;;;;;5083685;28;20063;-74
2022/11/14 04:37:01;;;;;;;12.52;8.02;;;;;;;;;;5083086;28;20366;-74
2022/11/14 04:39:27;;;;;;;12.65;7.97;;;;;;;;;;5087339;28;20028;-74
2022/11/14 04:41:53;;;;;;;15.45;8.05;;;;;;;;;;5079931;28;20073;-74
2022/11/14 04:44:19;;;;;;;14.48;9.45;;;;;;;;;;5083611;28;20028;-74
2022/11/14 04:46:45;;;;;;;16.38;8.93;;;;;;;;;;5088792;28;20028;-74
2022/11/14 04:49:11;;;;;;;14.98;8.40;;;;;;;;;;5078862;28;20043;-74
2022/11/14 04:51:37;;;;;;;13.07;7.45;;;;;;;;;;5079223;28;20028;-74
2022/11/14 04:54:03;;;;;;;13.50;7.93;;;;;;;;;;5079055;28;20077;-74
2022/11/14 04:56:29;;;;;;;12.73;7.78;;;;;;;;;;5076742;28;20059;-75
2022/11/14 04:58:55;;;;;;;15.52;7.90;;;;;;;;;;5078382;28;20062;-75
2022/11/14 05:01:21;;;;;;;16.77;8.48;;;;;;;;;;5070877;28;20470;-74
2022/11/14 05:03:47;;;;;;;12.30;7.93;;;;;;;;;;5083040;28;20056;-74
2022/11/14 05:06:13;;;;;;;16.30;7.35;;;;;;;;;;5088902;28;20101;-74
2022/11/14 05:08:39;;;;;;;11.60;7.30;;;;;;;;;;5082776;28;20028;-75
2022/11/14 05:11:05;;;;;;;14.85;7.85;;;;;;;;;;5095402;28;20108;-74
2022/11/14 05:13:31;;;;;;;13.70;7.80;;;;;;;;;;5077182;28;20464;-74
2022/11/14 05:16:00;;;;;;;11.73;6.63;;;;;;;;;;5079851;28;20047;-74
2022/11/14 05:18:26;;;;;;;12.77;7.20;;;;;;;;;;5083838;28;20380;-74
2022/11/14 05:20:52;;;;;;;13.43;6.55;;;;;;;;;;5086137;28;20064;-75
2022/11/14 05:23:22;;;;;;;9.20;5.90;;;;;;;;;;5080024;28;20105;-74
2022/11/14 05:25:58;;;;;;;10.15;5.57;;;;;;;;;;5080551;28;20048;-74
2022/11/14 05:28:24;;;;;;;11.20;5.80;;;;;;;;;;5088163;28;20032;-74
2022/11/14 05:30:50;;;;;;;12.70;6.05;;;;;;;;;;5078425;28;20470;-75
2022/11/14 05:33:16;;;;;;;13.77;6.72;;;;;;;;;;5088165;28;20111;-74
2022/11/14 05:35:42;;;;;;;10.63;5.20;;;;;;;;;;5088920;28;20042;-74
2022/11/14 05:38:08;;;;;;;8.52;4.88;;;;;;;;;;5079314;28;20040;-74
2022/11/14 05:40:34;;;;;;;29.77;23.60;;;;;;;;;;5074669;28;20781;-74
2022/11/14 05:43:00;;;;;;;19.15;13.27;;;;;;;;;;5078989;28;20056;-74
2022/11/14 05:45:26;;;;;;;13.23;9.07;;;;;;;;;;5087289;28;20060;-75
2022/11/14 05:47:55;;;;;;;16.08;8.50;;;;;;;;;;5094397;28;20036;-74
2022/11/14 05:50:22;;;;;;;13.40;6.97;;;;;;;;;;5067751;28;20055;-74
2022/11/14 05:52:48;;;;;;;23.45;8.23;;;;;;;;;;5083982;28;20024;-74
2022/11/14 05:55:14;;;;;;;10.75;5.35;;;;;;;;;;5083622;28;20036;-75
2022/11/14 05:57:40;;;;;;;11.38;4.72;;;;;;;;;;5075630;28;20032;-74
2022/11/14 06:00:06;;;;;;;9.38;4.95;;;;;;;;;;5087032;28;21270;-74
2022/11/14 06:02:32;;;;;;;12.73;6.57;;;;;;;;;;5087964;28;20028;-74
2022/11/14 06:04:58;;;;;;;28.92;13.80;;;;;;;;;;5084646;28;20032;-75
2022/11/14 06:07:24;;;;;;;25.95;14.02;;;;;;;;;;5076762;28;20036;-74
2022/11/14 06:09:50;;;;;;;18.30;7.18;;;;;;;;;;5087018;28;20040;-75
2022/11/14 06:12:16;;;;;;;10.60;3.83;;;;;;;;;;5081260;28;20082;-75
2022/11/14 06:14:42;;;;;;;8.38;4.03;;;;;;;;;;5076359;28;20051;-74
2022/11/14 06:17:08;;;;;;;11.68;2.97;;;;;;;;;;5077591;28;20403;-74
2022/11/14 06:19:34;;;;;;;7.45;3.25;;;;;;;;;;5079521;28;20093;-74
2022/11/14 06:22:00;;;;;;;8.50;3.08;;;;;;;;;;5082472;28;20107;-74
2022/11/14 06:24:26;;;;;;;10.27;2.47;;;;;;;;;;5080888;28;20815;-74
2022/11/14 06:26:52;;;;;;;7.78;2.50;;;;;;;;;;5081233;28;20048;-73
2022/11/14 06:29:18;;;;;;;10.80;3.10;;;;;;;;;;5078946;28;20037;-74
2022/11/14 06:31:44;;;;;;;15.63;8.18;;;;;;;;;;5082822;28;20105;-74
2022/11/14 06:34:11;;;;;;;16.52;8.18;;;;;;;;;;5087673;28;20051;-74
2022/11/14 06:36:38;;;;;;;12.25;6.63;;;;;;;;;;5085669;28;20032;-74
2022/11/14 06:39:04;;;;;;;9.48;4.45;;;;;;;;;;5086195;28;20793;-73
2022/11/14 06:41:30;;;;;;;12.02;5.93;;;;;;;;;;5084704;28;20032;-73
2022/11/14 06:43:56;;;;;;;6.57;3.00;;;;;;;;;;5091437;28;20047;-74
2022/11/14 06:46:22;;;;;;;6.72;2.58;;;;;;;;;;5080103;28;20090;-74
2022/11/14 06:48:49;;;;;;;13.00;7.60;;;;;;;;;;5085579;28;20043;-73
2022/11/14 06:51:16;;;;;;;13.35;6.85;;;;;;;;;;5076670;28;20050;-73
2022/11/14 06:53:42;;;;;;;10.70;5.28;;;;;;;;;;5081379;28;20130;-73
2022/11/14 06:56:12;;;;;;;9.68;3.97;;;;;;;;;;5083993;28;20032;-74
2022/11/14 06:58:43;;;;;;;8.98;3.65;;;;;;;;;;5088835;28;20070;-74
2022/11/14 07:01:12;;;;;;;6.40;2.60;;;;;;;;;;5083045;28;20032;-74
2022/11/14 07:03:38;;;;;;;4.72;1.80;;;;;;;;;;5083454;28;20455;-74
2022/11/14 07:06:05;;;;;;;3.38;0.93;;;;;;;;;;5083854;28;20572;-74
2022/11/14 07:08:31;;;;;;;3.28;0.90;;;;;;;;;;5091135;28;20044;-74
2022/11/14 07:11:08;;;;;;;4.70;1.05;;;;;;;;;;5083647;28;21331;-74
2022/11/14 07:13:34;;;;;;;4.45;1.33;;;;;;;;;;5084111;28;20040;-74
2022/11/14 07:16:01;;;;;;;8.32;1.45;;;;;;;;;;5090447;28;20039;-74
2022/11/14 07:18:29;;;;;;;2.80;1.02;;;;;;;;;;5083942;28;20035;-74
2022/11/14 07:20:59;;;;;;;14.70;7.75;;;;;;;;;;5085234;28;20028;-74
2022/11/14 07:23:25;;;;;;;15.18;5.50;;;;;;;;;;5084226;28;20114;-75
2022/11/14 07:25:51;;;;;;;7.68;2.63;;;;;;;;;;5084079;28;20049;-74
2022/11/14 07:28:17;;;;;;;3.90;1.45;;;;;;;;;;5081680;28;20481;-75
2022/11/14 07:30:43;;;;;;;7.53;0.88;;;;;;;;;;5091571;28;20103;-74
2022/11/14 07:33:10;;;;;;;2.90;0.60;;;;;;;;;;5081705;28;20058;-74
2022/11/14 07:35:38;;;;;;;5.15;0.93;;;;;;;;;;5079478;28;20546;-74
2022/11/14 07:38:04;;;;;;;3.22;1.00;;;;;;;;;;5080623;28;20072;-74
2022/11/14 07:40:30;;;;;;;1.92;0.85;;;;;;;;;;5088546;28;20051;-74
2022/11/14 07:43:00;;;;;;;3.47;1.30;;;;;;;;;;5082594;28;20051;-74
2022/11/14 07:45:27;;;;;;;8.15;2.28;;;;;;;;;;5077953;28;20032;-74
2022/11/14 07:47:57;;;;;;;6.65;2.28;;;;;;;;;;5081311;28;20036;-74
2022/11/14 07:50:24;;;;;;;9.40;2.33;;;;;;;;;;5091269;28;20031;-74
2022/11/14 07:52:51;;;;;;;7.72;2.30;;;;;;;;;;5080275;28;20036;-74
2022/11/14 07:55:17;;;;;;;9.73;2.67;;;;;;;;;;5090126;28;20032;-74
2022/11/14 07:57:43;;;;;;;8.50;3.92;;;;;;;;;;5085163;28;20037;-74
2022/11/14 08:00:09;;;;;;;7.30;3.08;;;;;;;;;;5080949;28;20105;-74
2022/11/14 08:02:35;;;;;;;7.28;3.25;;;;;;;;;;5083339;28;20059;-74
2022/11/14 08:05:01;;;;;;;4.82;1.20;;;;;;;;;;5085715;28;20043;-74
2022/11/14 08:07:27;;;;;;;7.20;2.63;;;;;;;;;;5087193;28;20032;-74
2022/11/14 08:09:53;;;;;;;6.75;2.50;;;;;;;;;;5083230;28;20020;-74
2022/11/14 08:12:19;;;;;;;14.38;7.72;;;;;;;;;;5087532;28;20048;-74
2022/11/14 08:14:45;;;;;;;12.55;5.38;;;;;;;;;;5085811;28;20350;-74
2022/11/14 08:17:11;;;;;;;9.70;3.38;;;;;;;;;;5077471;28;20119;-74
2022/11/14 08:19:37;;;;;;;10.07;3.70;;;;;;;;;;5090185;28;20027;-74
2022/11/14 08:22:03;;;;;;;9.82;4.93;;;;;;;;;;5082050;28;20037;-74
2022/11/14 08:24:29;;;;;;;4.97;1.08;;;;;;;;;;5081279;28;20064;-74
2022/11/14 08:26:55;;;;;;;1.58;0.50;;;;;;;;;;5080051;28;20097;-74
2022/11/14 08:29:21;;;;;;;2.65;0.80;;;;;;;;;;5081803;28;20762;-74
2022/11/14 08:31:47;;;;;;;10.90;4.63;;;;;;;;;;5083441;28;20040;-74
2022/11/14 08:34:13;;;;;;;12.07;4.63;;;;;;;;;;5075280;28;20024;-74
2022/11/14 08:36:39;;;;;;;11.50;4.25;;;;;;;;;;5081132;28;20697;-74
2022/11/14 08:39:05;;;;;;;17.35;7.25;;;;;;;;;;5079017;28;20044;-74
2022/11/14 08:41:31;;;;;;;14.68;6.55;;;;;;;;;;5077593;28;20064;-74
2022/11/14 08:43:57;;;;;;;21.00;6.70;;;;;;;;;;5076966;28;20056;-74
2022/11/14 08:46:23;;;;;;;12.02;4.68;;;;;;;;;;5084352;28;20024;-74
2022/11/14 08:48:49;;;;;;;13.23;4.95;;;;;;;;;;5085878;28;20031;-74
2022/11/14 08:51:15;;;;;;;13.20;5.95;;;;;;;;;;5088706;28;20085;-74
2022/11/14 08:53:41;;;;;;;16.65;6.70;;;;;;;;;;5079900;28;20029;-74
2022/11/14 08:56:09;;;;;;;11.55;4.40;;;;;;;;;;5081679;28;20039;-74
2022/11/14 08:58:35;;;;;;;12.35;5.93;;;;;;;;;;5080809;28;20387;-74
2022/11/14 09:01:05;;;;;;;14.48;5.30;;;;;;;;;;5079285;28;20127;-74
2022/11/14 09:03:32;;;;;;;12.40;5.50;;;;;;;;;;5090372;28;20024;-74
2022/11/14 09:05:58;;;;;;;12.90;4.85;;;;;;;;;;5081243;28;20028;-74
2022/11/14 09:08:24;;;;;;;9.38;3.72;;;;;;;;;;5086154;28;20028;-73
2022/11/14 09:10:50;;;;;;;12.43;3.95;;;;;;;;;;5081158;28;20040;-74
2022/11/14 09:13:16;;;;;;;11.02;4.10;;;;;;;;;;5085967;28;20116;-74
2022/11/14 09:15:42;;;;;;;12.10;6.55;;;;;;;;;;5080173;28;20070;-74
2022/11/14 09:18:09;;;;;;;16.83;7.95;;;;;;;;;;5088074;28;20047;-74
2022/11/14 09:20:35;;;;;;;13.73;6.65;;;;;;;;;;5076984;28;20536;-75
2022/11/14 09:23:01;;;;;;;10.68;4.05;;;;;;;;;;5081661;28;20036;-75
2022/11/14 09:25:28;;;;;;;10.18;4.13;;;;;;;;;;5082882;28;20085;-75
2022/11/14 09:27:54;;;;;;;6.18;2.95;;;;;;;;;;5083444;28;20032;-75
2022/11/14 09:30:23;;;;;;;11.25;2.50;;;;;;;;;;5080971;28;20031;-75
2022/11/14 09:32:50;;;;;;;7.50;2.95;;;;;;;;;;5084421;28;20034;-75
2022/11/14 09:35:16;;;;;;;5.28;2.45;;;;;;;;;;5083015;28;20024;-75
2022/11/14 09:37:42;;;;;;;13.23;5.95;;;;;;;;;;5076926;28;20071;-75
2022/11/14 09:40:11;;;;;;;23.00;11.75;;;;;;;;;;5083662;28;20435;-75
2022/11/14 09:43:00;;;;;;;19.65;9.88;;;;;;;;;;5083109;28;20032;-75
2022/11/14 09:45:27;;;;;;;16.42;9.48;;;;;;;;;;5073241;28;20040;-75
2022/11/14 09:47:55;;;;;;;10.10;4.68;;;;;;;;;;5077511;28;20500;-75
2022/11/14 09:50:27;;;;;;;14.73;4.20;;;;;;;;;;5079991;28;20040;-75
2022/11/14 09:52:55;;;;;;;13.63;4.53;;;;;;;;;;5077173;28;20036;-75
2022/11/14 09:55:22;;;;;;;9.20;4.95;;;;;;;;;;5082329;28;20035;-75
2022/11/14 09:57:48;;;;;;;10.98;4.30;;;;;;;;;;5082655;28;20484;-75
2022/11/14 10:00:14;;;;;;;13.73;5.45;;;;;;;;;;5078109;28;20071;-76
2022/11/14 10:02:51;;;;;;;10.82;3.72;;;;;;;;;;5080469;28;20043;-76
2022/11/14 10:05:30;;;;;;;11.27;3.90;;;;;;;;;;5085382;28;20055;-76
2022/11/14 10:08:07;;;;;;;4.13;1.45;;;;;;;;;;5088242;28;20032;-75
2022/11/14 10:10:53;;;;;;;5.07;1.33;;;;;;;;;;5091207;28;20078;-75
2022/11/14 10:13:22;;;;;;;12.15;4.43;;;;;;;;;;5086195;28;20437;-75
2022/11/14 10:15:57;;;;;;;7.25;1.63;;;;;;;;;;5083992;28;20036;-75
2022/11/14 10:18:23;;;;;;;7.40;2.50;;;;;;;;;;5094643;28;20977;-75
2022/11/14 10:20:49;;;;;;;7.90;3.10;;;;;;;;;;5094561;28;20044;-75
2022/11/14 10:23:21;;;;;;;8.35;3.65;;;;;;;;;;5084213;28;20400;-75
2022/11/14 10:25:56;;;;;;;11.98;5.38;;;;;;;;;;5083896;28;20417;-75
2022/11/14 10:28:25;;;;;;;15.23;5.70;;;;;;;;;;5079705;28;20028;-75
2022/11/14 10:30:58;;;;;;;13.20;5.13;;;;;;;;;;5089102;28;20039;-75
2022/11/14 10:33:33;;;;;;;4.93;1.95;;;;;;;;;;5082715;28;20478;-75
2022/11/14 10:36:18;;;;;;;9.40;4.57;;;;;;;;;;5085613;28;20075;-74
2022/11/14 10:38:49;;;;;;;12.73;5.05;;;;;;;;;;5086235;28;20035;-75
2022/11/14 10:41:15;;;;;;;13.50;6.90;;;;;;;;;;5077211;28;20395;-75
2022/11/14 10:43:43;;;;;;;8.40;3.15;;;;;;;;;;5078880;28;20033;-75
2022/11/14 10:46:15;;;;;;;7.65;1.70;;;;;;;;;;5083132;28;20036;-75
2022/11/14 10:48:43;;;;;;;6.47;2.05;;;;;;;;;;5083524;28;20101;-75
2022/11/14 10:51:09;;;;;;;3.30;0.90;;;;;;;;;;5075095;28;20775;-75
2022/11/14 10:53:35;;;;;;;6.18;1.95;;;;;;;;;;5085657;28;20027;-75
2022/11/14 10:56:02;;;;;;;4.38;1.30;;;;;;;;;;5085152;28;20376;-75
2022/11/14 10:58:28;;;;;;;6.13;2.05;;;;;;;;;;5081156;28;20025;-75
2022/11/14 11:00:54;;;;;;;13.55;4.78;;;;;;;;;;5073602;28;20028;-74
2022/11/14 11:03:20;;;;;;;13.63;6.30;;;;;;;;;;5090839;28;20361;-74
2022/11/14 11:05:47;;;;;;;14.95;5.60;;;;;;;;;;5088633;28;20034;-74
2022/11/14 11:13:53;;;;;;;9.57;4.00;;;;;;;;;;5078735;28;20078;-75
2022/11/14 11:16:21;;;;;;;14.57;5.70;;;;;;;;;;5073767;28;20028;-76
2022/11/14 11:18:47;;;;;;;16.55;5.57;;;;;;;;;;5075885;28;20036;-76
2022/11/14 11:21:14;;;;;;;16.70;6.38;;;;;;;;;;5087194;28;20031;-76
2022/11/14 11:23:54;;;;;;;18.08;5.50;;;;;;;;;;5088907;28;20024;-76
2022/11/14 11:26:22;;;;;;;16.30;5.63;;;;;;;;;;5083265;28;20045;-75
2022/11/14 11:29:18;;;;;;;6.72;3.13;;;;;;;;;;5087849;28;20032;-76
2022/11/14 11:31:47;;;;;;;30.75;16.08;;;;;;;;;;5070278;28;20032;-75
2022/11/14 11:34:13;;;;;;;28.95;15.70;;;;;;;;;;5088827;28;20046;-76
2022/11/14 11:36:47;;;;;;;14.23;7.28;;;;;;;;;;5086897;28;20030;-76
2022/11/14 11:39:21;;;;;;;3.85;1.05;;;;;;;;;;5090241;28;20036;-76
2022/11/14 11:41:48;;;;;;;4.30;0.93;;;;;;;;;;5090220;28;20484;-76
2022/11/14 11:44:16;;;;;;;9.23;1.70;;;;;;;;;;5081958;28;20040;-76
2022/11/14 11:46:49;;;;;;;7.25;2.92;;;;;;;;;;5080581;28;20036;-76
2022/11/14 11:52:31;;;;;;;6.90;2.70;;;;;;;;;;5080080;28;20047;-76
2022/11/14 11:55:12;;;;;;;24.30;12.65;;;;;;;;;;5090376;28;20032;-76
2022/11/14 11:57:42;;;;;;;11.67;5.57;;;;;;;;;;5089145;28;20028;-76
2022/11/14 12:00:19;;;;;;;9.10;4.75;;;;;;;;;;5080810;28;20035;-76
2022/11/14 12:02:46;;;;;;;26.33;12.48;;;;;;;;;;5080256;28;20035;-76
2022/11/14 12:05:14;;;;;;;31.90;18.08;;;;;;;;;;5088327;28;20347;-76
2022/11/14 12:07:46;;;;;;;5.57;0.93;;;;;;;;;;5087665;28;20120;-76
2022/11/14 12:10:23;;;;;;;4.43;0.70;;;;;;;;;;5085757;28;20044;-76
2022/11/14 12:12:49;;;;;;;2.42;0.60;;;;;;;;;;5085106;28;20139;-76
2022/11/14 12:15:31;;;;;;;5.38;0.80;;;;;;;;;;5087267;28;20221;-76
2022/11/14 12:17:57;;;;;;;4.10;0.73;;;;;;;;;;5087307;28;20040;-75
2022/11/14 12:20:23;;;;;;;3.63;0.60;;;;;;;;;;5086375;28;20047;-75
2022/11/14 12:23:02;;;;;;;3.63;0.63;;;;;;;;;;5084419;28;20077;-76
2022/11/14 12:25:28;;;;;;;2.22;0.80;;;;;;;;;;5087126;28;20464;-75
2022/11/14 12:28:04;;;;;;;3.28;0.80;;;;;;;;;;5088314;28;20720;-76
2022/11/14 12:30:31;;;;;;;6.90;0.90;;;;;;;;;;5090514;28;20024;-75
2022/11/14 12:33:00;;;;;;;2.65;0.80;;;;;;;;;;5084374;28;20043;-75
2022/11/14 12:35:30;;;;;;;4.25;0.90;;;;;;;;;;5093337;28;20113;-75
2022/11/14 12:37:58;;;;;;;4.15;0.80;;;;;;;;;;5080173;28;20044;-76
2022/11/14 12:40:30;;;;;;;5.38;1.00;;;;;;;;;;5080263;28;20055;-76
2022/11/14 12:42:57;;;;;;;3.50;0.70;;;;;;;;;;5081629;28;20033;-76
2022/11/14 12:45:41;;;;;;;4.75;0.95;;;;;;;;;;5081223;28;20386;-75
2022/11/14 12:48:29;;;;;;;3.90;0.70;;;;;;;;;;5078053;28;20526;-76
2022/11/14 12:50:59;;;;;;;3.72;0.77;;;;;;;;;;5089297;28;20028;-76
2022/11/14 12:53:36;;;;;;;5.80;0.90;;;;;;;;;;5081260;28;20043;-75
2022/11/14 12:56:05;;;;;;;2.22;0.68;;;;;;;;;;5085803;28;20106;-76
2022/11/14 12:58:31;;;;;;;7.40;1.00;;;;;;;;;;5086725;28;20039;-74
2022/11/14 13:01:05;;;;;;;4.38;1.00;;;;;;;;;;5078895;28;20485;-75
2022/11/14 13:03:31;;;;;;;2.22;0.60;;;;;;;;;;5081001;28;20830;-75
2022/11/14 13:05:59;;;;;;;3.97;1.15;;;;;;;;;;5083405;28;20045;-74
2022/11/14 13:08:43;;;;;;;6.53;0.95;;;;;;;;;;5077085;28;20815;-73
2022/11/14 13:21:44;;;;;;;6.15;1.15;;;;;;;;;;5086870;28;20028;-73
2022/11/14 13:22:43;;;;;;;7.25;1.08;;;;;;;;;;5087363;28;20050;-74
2022/11/14 13:25:19;;;;;;;5.50;0.90;;;;;;;;;;5081360;28;20079;-73
2022/11/14 13:27:46;;;;;;;6.50;2.67;;;;;;;;;;5086708;28;20043;-74
2022/11/14 13:30:12;;;;;;;6.55;2.28;;;;;;;;;;5086942;28;20118;-74
2022/11/14 13:32:41;;;;;;;128.68;14.63;;;;;;;;;;5089290;28;20107;-74
2022/11/14 13:35:10;;;;;;;10.25;1.70;;;;;;;;;;5080781;28;20036;-74
2022/11/14 13:37:54;;;;;;;4.25;0.88;;;;;;;;;;5079491;28;20032;-74
2022/11/14 13:40:27;;;;;;;3.53;1.08;;;;;;;;;;5085323;28;20552;-74
2022/11/14 13:42:59;;;;;;;2.75;0.50;;;;;;;;;;5077666;28;20099;-74
2022/11/14 13:45:44;;;;;;;3.50;0.90;;;;;;;;;;5081018;28;20111;-74
2022/11/14 13:48:09;;;;;;;5.30;1.95;;;;;;;;;;5086540;28;20059;-74
2022/11/14 13:50:36;;;;;;;5.50;0.60;;;;;;;;;;5080400;28;20060;-74
2022/11/14 13:53:10;;;;;;;6.18;1.73;;;;;;;;;;5083178;28;20032;-74
2022/11/14 13:55:36;;;;;;;4.53;0.70;;;;;;;;;;5080995;28;20070;-74
2022/11/14 13:58:26;;;;;;;2.00;0.52;;;;;;;;;;5082125;28;20500;-74
2022/11/14 14:01:01;;;;;;;5.00;0.50;;;;;;;;;;5084262;28;20473;-74
2022/11/14 14:03:33;;;;;;;9.60;0.90;;;;;;;;;;5086455;28;20028;-73
2022/11/14 14:05:59;;;;;;;;;;;;;;;;;;5084656;28;20148;-74
2022/11/14 14:08:36;;;;;;;2.58;0.60;;;;;;;;;;5085633;28;20533;-74
2022/11/14 14:11:02;;;;;;;2.20;0.52;;;;;;;;;;5081055;28;20380;-73
2022/11/14 14:13:39;;;;;;;5.90;0.80;;;;;;;;;;5082843;28;20050;-74
2022/11/14 14:16:23;;;;;;;3.25;0.45;;;;;;;;;;5086713;28;20045;-74
2022/11/14 14:19:25;;;;;;;4.82;1.35;;;;;;;;;;5078880;28;20044;-74
2022/11/14 14:21:59;;;;;;;3.40;0.73;;;;;;;;;;4964268;28;20543;-73
2022/11/14 14:24:39;;;;;;;4.45;0.70;;;;;;;;;;5066336;28;20047;-74
2022/11/14 14:27:11;;;;;;;2.70;0.63;;;;;;;;;;5084768;28;20067;-74
2022/11/14 14:29:52;;;;;;;2.53;0.57;;;;;;;;;;5085074;28;20028;-74
2022/11/14 14:32:19;;;;;;;5.15;0.55;;;;;;;;;;5084179;28;20107;-74
2022/11/14 14:34:45;;;;;;;2.58;0.63;;;;;;;;;;5081227;28;20051;-74
2022/11/14 14:37:16;;;;;;;3.67;0.90;;;;;;;;;;5082515;28;20028;-74
2022/11/14 14:39:54;;;;;;;4.03;0.80;;;;;;;;;;5082774;28;20493;-74
2022/11/14 14:42:20;;;;;;;4.78;0.65;;;;;;;;;;5084768;28;20039;-74
2022/11/14 14:44:47;;;;;;;4.13;0.82;;;;;;;;;;5088754;28;20039;-74
2022/11/14 14:47:16;;;;;;;3.05;0.77;;;;;;;;;;5086814;28;20028;-74
2022/11/14 14:49:43;;;;;;;9.65;1.33;;;;;;;;;;5078194;28;20028;-74
2022/11/14 14:52:27;;;;;;;3.53;0.80;;;;;;;;;;5085873;28;20474;-74
2022/11/14 14:54:54;;;;;;;3.97;0.60;;;;;;;;;;5083287;28;20067;-74
2022/11/14 14:57:20;;;;;;;3.55;0.82;;;;;;;;;;5083909;28;20526;-74